Time;durP1;ratioP1;P1;durP2;ratioP2;P2;SDS_P1;SDS_P2;PMS_P1;PMS_P2;Temp;Humidity;BMP_temperature;BMP_pressure;BME280_temperature;BME280_humidity;BME280_pressure;Samples;Min_cycle;Max_cycle;Signal;HPM_P1;HPM_P2
2022/10/21 00:00:24;;;;;;;;;4.00;3.00;;;;;;;;5020245;28;45146;-74
2022/10/21 00:02:49;;;;;;;;;5.00;3.25;;;;;;;;5020084;28;45434;-74
2022/10/21 00:05:15;;;;;;;;;3.00;3.00;;;;;;;;5019879;28;45377;-74
2022/10/21 00:07:40;;;;;;;;;2.50;2.25;;;;;;;;5019745;28;45544;-74
2022/10/21 00:10:06;;;;;;;;;2.75;2.75;;;;;;;;5020121;28;45143;-74
2022/10/21 00:12:31;;;;;;;;;4.00;3.00;;;;;;;;5020131;28;45624;-74
2022/10/21 00:14:57;;;;;;;;;7.75;3.00;;;;;;;;5019600;28;46211;-74
2022/10/21 00:17:22;;;;;;;;;3.00;2.00;;;;;;;;5019780;28;45270;-74
2022/10/21 00:19:47;;;;;;;;;2.50;1.00;;;;;;;;5019745;28;45756;-74
2022/10/21 00:22:12;;;;;;;;;2.00;2.00;;;;;;;;5020369;28;45383;-74
2022/10/21 00:24:37;;;;;;;;;1.25;1.25;;;;;;;;5019447;28;46358;-74
2022/10/21 00:27:03;;;;;;;;;4.50;1.50;;;;;;;;5019671;28;45324;-74
2022/10/21 00:29:28;;;;;;;;;1.00;1.00;;;;;;;;5019918;28;45381;-74
2022/10/21 00:31:54;;;;;;;;;5.00;1.75;;;;;;;;5019631;28;45353;-74
2022/10/21 00:34:19;;;;;;;;;2.00;2.00;;;;;;;;5019208;28;46428;-74
2022/10/21 00:36:45;;;;;;;;;2.50;2.50;;;;;;;;5019466;28;45282;-74
2022/10/21 00:39:10;;;;;;;;;2.00;2.00;;;;;;;;5019533;28;45447;-74
2022/10/21 00:41:35;;;;;;;;;3.50;1.50;;;;;;;;5019785;28;45317;-74
2022/10/21 00:44:03;;;;;;;;;1.00;1.00;;;;;;;;5018008;28;46016;-74
2022/10/21 00:46:34;;;;;;;;;3.50;1.75;;;;;;;;5019455;28;45448;-74
2022/10/21 00:49:02;;;;;;;;;2.00;2.00;;;;;;;;5019135;28;45343;-74
2022/10/21 00:51:28;;;;;;;;;2.75;2.50;;;;;;;;5019531;28;45512;-75
2022/10/21 00:53:54;;;;;;;;;4.00;3.00;;;;;;;;5019058;28;45646;-75
2022/10/21 00:56:24;;;;;;;;;1.75;1.00;;;;;;;;5019247;28;45407;-75
2022/10/21 00:58:52;;;;;;;;;2.50;2.00;;;;;;;;5019182;28;45301;-75
2022/10/21 01:01:18;;;;;;;;;2.00;2.00;;;;;;;;5019483;28;45375;-74
2022/10/21 01:03:43;;;;;;;;;2.00;1.50;;;;;;;;5018919;28;45367;-74
2022/10/21 01:06:10;;;;;;;;;3.75;3.75;;;;;;;;5018981;28;45305;-74
2022/10/21 01:08:36;;;;;;;;;3.75;2.75;;;;;;;;5018967;28;45306;-74
2022/10/21 01:11:02;;;;;;;;;2.25;0.75;;;;;;;;5019132;28;45421;-74
2022/10/21 01:13:36;;;;;;;;;3.25;1.75;;;;;;;;5018888;28;45457;-74
2022/10/21 01:16:17;;;;;;;;;1.60;0.60;;;;;;;;5018940;28;45320;-74
2022/10/21 01:18:56;;;;;;;;;1.00;1.00;;;;;;;;5019017;28;45512;-74
2022/10/21 01:21:24;;;;;;;;;1.25;1.25;;;;;;;;5018695;28;45360;-74
2022/10/21 01:23:55;;;;;;;;;1.75;1.75;;;;;;;;5018733;28;46322;-74
2022/10/21 01:26:20;;;;;;;;;1.00;0.00;;;;;;;;5018695;28;45467;-74
2022/10/21 01:29:04;;;;;;;;;0.75;0.75;;;;;;;;5018545;28;45315;-74
2022/10/21 01:31:44;;;;;;;;;0.75;0.75;;;;;;;;5017910;28;45380;-74
2022/10/21 01:34:16;;;;;;;;;1.00;1.00;;;;;;;;5017755;28;47414;-74
2022/10/21 01:36:55;;;;;;;;;1.00;0.75;;;;;;;;5016336;28;45342;-73
2022/10/21 01:39:24;;;;;;;;;0.75;0.75;;;;;;;;5011093;28;45401;-73
2022/10/21 01:42:08;;;;;;;;;0.75;0.75;;;;;;;;5007888;28;45468;-71
2022/10/21 01:44:41;;;;;;;;;2.00;2.00;;;;;;;;5000272;28;46857;-71
2022/10/21 01:47:18;;;;;;;;;2.50;1.25;;;;;;;;5013771;28;45492;-74
2022/10/21 01:49:53;;;;;;;;;1.00;1.00;;;;;;;;5006459;28;45248;-74
2022/10/21 01:52:19;;;;;;;;;1.00;1.00;;;;;;;;5018504;28;45313;-74
2022/10/21 01:54:49;;;;;;;;;1.75;1.00;;;;;;;;5018122;28;45238;-73
2022/10/21 01:57:15;;;;;;;;;0.00;0.00;;;;;;;;5017983;28;45484;-75
2022/10/21 01:59:42;;;;;;;;;0.25;0.25;;;;;;;;5015526;28;46680;-75
2022/10/21 02:02:08;;;;;;;;;7.00;2.00;;;;;;;;5017301;28;45307;-75
2022/10/21 02:04:35;;;;;;;;;1.75;1.75;;;;;;;;5018013;28;45625;-73
2022/10/21 02:07:00;;;;;;;;;0.25;0.25;;;;;;;;5017886;28;45409;-73
2022/10/21 02:09:26;;;;;;;;;2.00;0.50;;;;;;;;5015769;28;45722;-72
2022/10/21 02:11:53;;;;;;;;;1.00;0.50;;;;;;;;5010972;28;45403;-73
2022/10/21 02:14:24;;;;;;;;;2.50;0.50;;;;;;;;5018055;28;46404;-73
2022/10/21 02:16:50;;;;;;;;;1.80;1.80;;;;;;;;5017913;28;45373;-73
2022/10/21 02:19:17;;;;;;;;;1.25;1.25;;;;;;;;5018014;28;45479;-73
2022/10/21 02:21:44;;;;;;;;;0.50;0.25;;;;;;;;5015866;28;45515;-73
2022/10/21 02:24:14;;;;;;;;;0.75;0.75;;;;;;;;5017687;28;45394;-73
2022/10/21 02:26:39;;;;;;;;;1.00;1.00;;;;;;;;5017789;28;45408;-73
2022/10/21 02:29:04;;;;;;;;;3.75;1.00;;;;;;;;5018186;28;45321;-73
2022/10/21 02:31:29;;;;;;;;;1.50;0.25;;;;;;;;5017745;28;45338;-73
2022/10/21 02:34:10;;;;;;;;;1.25;0.50;;;;;;;;5017821;28;46076;-73
2022/10/21 02:36:41;;;;;;;;;1.50;0.50;;;;;;;;5016991;28;45510;-73
2022/10/21 02:39:11;;;;;;;;;0.25;0.25;;;;;;;;5017576;28;45333;-72
2022/10/21 02:41:37;;;;;;;;;1.50;0.50;;;;;;;;5017422;28;45309;-72
2022/10/21 02:44:03;;;;;;;;;0.50;0.50;;;;;;;;5017617;28;45677;-73
2022/10/21 02:46:42;;;;;;;;;1.50;0.00;;;;;;;;5016937;28;45348;-73
2022/10/21 02:49:07;;;;;;;;;1.00;1.00;;;;;;;;5017582;28;45197;-73
2022/10/21 02:51:33;;;;;;;;;2.00;1.00;;;;;;;;5017417;28;45381;-73
2022/10/21 02:53:58;;;;;;;;;1.00;1.00;;;;;;;;5017311;28;46685;-73
2022/10/21 02:56:24;;;;;;;;;0.00;0.00;;;;;;;;5017392;28;45572;-73
2022/10/21 02:58:49;;;;;;;;;2.00;0.00;;;;;;;;5017652;28;45394;-73
2022/10/21 03:01:14;;;;;;;;;0.25;0.25;;;;;;;;5017080;28;45448;-72
2022/10/21 03:03:39;;;;;;;;;1.50;0.50;;;;;;;;5017347;28;46741;-72
2022/10/21 03:06:05;;;;;;;;;0.75;0.75;;;;;;;;5016789;28;45422;-72
2022/10/21 03:08:30;;;;;;;;;0.75;0.50;;;;;;;;5016802;28;45424;-73
2022/10/21 03:10:55;;;;;;;;;2.25;0.25;;;;;;;;5017500;28;45293;-72
2022/10/21 03:13:21;;;;;;;;;2.75;1.75;;;;;;;;5018055;28;46257;-73
2022/10/21 03:15:47;;;;;;;;;2.50;1.00;;;;;;;;5020233;28;45429;-73
2022/10/21 03:18:12;;;;;;;;;1.00;1.00;;;;;;;;5020937;28;45295;-73
2022/10/21 03:20:37;;;;;;;;;2.50;1.25;;;;;;;;5018272;28;45511;-73
2022/10/21 03:23:02;;;;;;;;;2.00;0.50;;;;;;;;5019421;28;46753;-73
2022/10/21 03:25:28;;;;;;;;;2.00;2.00;;;;;;;;5020615;28;45780;-73
2022/10/21 03:27:53;;;;;;;;;1.50;1.50;;;;;;;;5020692;28;45497;-73
2022/10/21 03:30:18;;;;;;;;;0.00;0.00;;;;;;;;5020505;28;45466;-73
2022/10/21 03:32:43;;;;;;;;;2.25;1.00;;;;;;;;5020274;28;46598;-74
2022/10/21 03:35:08;;;;;;;;;13.25;12.75;;;;;;;;5018903;28;45386;-73
2022/10/21 03:37:34;;;;;;;;;4.25;4.25;;;;;;;;5020214;28;45368;-73
2022/10/21 03:39:59;;;;;;;;;4.00;4.00;;;;;;;;5019411;28;45393;-73
2022/10/21 03:42:25;;;;;;;;;2.50;2.50;;;;;;;;5020025;28;47145;-73
2022/10/21 03:44:51;;;;;;;;;2.00;2.00;;;;;;;;5018407;28;45432;-73
2022/10/21 03:47:16;;;;;;;;;3.25;2.00;;;;;;;;5020236;28;45313;-74
2022/10/21 03:49:41;;;;;;;;;3.00;1.00;;;;;;;;5020556;28;45401;-72
2022/10/21 03:52:06;;;;;;;;;2.50;2.00;;;;;;;;5019647;28;45365;-73
2022/10/21 03:54:31;;;;;;;;;1.50;1.50;;;;;;;;5019520;28;45392;-73
2022/10/21 03:56:57;;;;;;;;;3.75;2.50;;;;;;;;5020269;28;45329;-73
2022/10/21 03:59:22;;;;;;;;;1.50;0.75;;;;;;;;5019753;28;45435;-73
2022/10/21 04:01:47;;;;;;;;;3.50;1.50;;;;;;;;5019912;28;45418;-73
2022/10/21 04:04:12;;;;;;;;;2.00;1.50;;;;;;;;5020044;28;45443;-73
2022/10/21 04:06:38;;;;;;;;;0.00;0.00;;;;;;;;5019645;28;45297;-73
2022/10/21 04:09:03;;;;;;;;;2.25;1.25;;;;;;;;5019880;28;45416;-75
2022/10/21 04:11:28;;;;;;;;;3.50;2.00;;;;;;;;5019662;28;46448;-74
2022/10/21 04:13:53;;;;;;;;;5.25;0.75;;;;;;;;5019374;28;45603;-75
2022/10/21 04:16:20;;;;;;;;;1.75;0.50;;;;;;;;5017393;28;45506;-73
2022/10/21 04:18:45;;;;;;;;;2.50;2.50;;;;;;;;5019654;28;45484;-72
2022/10/21 04:21:11;;;;;;;;;0.75;0.75;;;;;;;;5019395;28;45458;-73
2022/10/21 04:23:36;;;;;;;;;0.50;0.50;;;;;;;;5019048;28;45312;-72
2022/10/21 04:26:01;;;;;;;;;3.75;2.00;;;;;;;;5019275;28;45430;-73
2022/10/21 04:28:26;;;;;;;;;0.50;0.50;;;;;;;;5019760;28;45294;-73
2022/10/21 04:30:52;;;;;;;;;3.00;0.75;;;;;;;;5019276;28;45552;-73
2022/10/21 04:33:17;;;;;;;;;1.50;1.50;;;;;;;;5019691;28;45226;-73
2022/10/21 04:35:42;;;;;;;;;2.00;1.50;;;;;;;;5017505;28;45401;-72
2022/10/21 04:38:07;;;;;;;;;0.50;0.50;;;;;;;;5019476;28;45428;-72
2022/10/21 04:40:33;;;;;;;;;1.00;1.00;;;;;;;;5019380;28;47033;-73
2022/10/21 04:42:58;;;;;;;;;0.50;0.50;;;;;;;;5019176;28;45346;-73
2022/10/21 04:45:23;;;;;;;;;1.50;1.50;;;;;;;;5019803;28;45464;-73
2022/10/21 04:47:48;;;;;;;;;2.25;0.75;;;;;;;;5019568;28;45436;-73
2022/10/21 04:50:14;;;;;;;;;1.75;1.50;;;;;;;;5019369;28;46232;-73
2022/10/21 04:52:39;;;;;;;;;0.75;0.75;;;;;;;;5018583;28;45329;-73
2022/10/21 04:55:04;;;;;;;;;0.75;0.25;;;;;;;;5019275;28;45329;-73
2022/10/21 04:57:30;;;;;;;;;1.75;1.75;;;;;;;;5019602;28;45322;-73
2022/10/21 04:59:55;;;;;;;;;0.75;0.75;;;;;;;;5018741;28;46297;-73
2022/10/21 05:02:21;;;;;;;;;6.50;3.50;;;;;;;;5019042;28;45252;-73
2022/10/21 05:04:47;;;;;;;;;4.00;2.50;;;;;;;;5019032;28;45213;-75
2022/10/21 05:07:12;;;;;;;;;9.50;7.50;;;;;;;;5018649;28;45901;-75
2022/10/21 05:09:37;;;;;;;;;0.75;0.75;;;;;;;;5018655;28;45579;-75
2022/10/21 05:12:03;;;;;;;;;0.75;0.75;;;;;;;;5018539;28;45770;-75
2022/10/21 05:14:28;;;;;;;;;1.50;1.50;;;;;;;;5019251;28;45196;-76
2022/10/21 05:16:53;;;;;;;;;2.25;2.25;;;;;;;;5018839;28;45322;-73
2022/10/21 05:19:18;;;;;;;;;0.50;0.50;;;;;;;;5018568;28;45450;-74
2022/10/21 05:21:45;;;;;;;;;1.50;1.50;;;;;;;;5018839;28;45342;-72
2022/10/21 05:24:11;;;;;;;;;2.50;2.00;;;;;;;;5018183;28;45498;-73
2022/10/21 05:26:36;;;;;;;;;0.50;0.50;;;;;;;;5019089;28;45315;-72
2022/10/21 05:29:01;;;;;;;;;0.50;0.50;;;;;;;;5018568;28;46276;-74
2022/10/21 05:31:26;;;;;;;;;1.25;1.25;;;;;;;;5017491;28;45517;-75
2022/10/21 05:33:52;;;;;;;;;24.00;22.00;;;;;;;;5018904;28;45411;-75
2022/10/21 05:36:17;;;;;;;;;9.00;7.50;;;;;;;;5017570;28;45490;-75
2022/10/21 05:38:42;;;;;;;;;3.75;2.50;;;;;;;;5018245;28;47145;-75
2022/10/21 05:41:09;;;;;;;;;4.25;3.00;;;;;;;;5018491;28;45367;-74
2022/10/21 05:43:35;;;;;;;;;1.50;1.50;;;;;;;;5017093;28;45324;-74
2022/10/21 05:46:00;;;;;;;;;1.25;1.25;;;;;;;;5018619;28;45622;-75
2022/10/21 05:48:25;;;;;;;;;2.50;2.50;;;;;;;;5017946;28;46288;-75
2022/10/21 05:50:52;;;;;;;;;2.25;2.25;;;;;;;;5018367;28;45408;-75
2022/10/21 05:53:17;;;;;;;;;6.00;4.50;;;;;;;;5017537;28;45426;-75
2022/10/21 05:55:42;;;;;;;;;6.00;4.25;;;;;;;;5018509;28;45702;-75
2022/10/21 05:58:07;;;;;;;;;6.00;6.00;;;;;;;;5018285;28;45276;-75
2022/10/21 06:00:33;;;;;;;;;13.25;11.75;;;;;;;;5017521;28;45609;-75
2022/10/21 06:02:58;;;;;;;;;3.75;3.00;;;;;;;;5016915;28;45327;-75
2022/10/21 06:05:23;;;;;;;;;11.00;10.00;;;;;;;;5018489;28;45159;-75
2022/10/21 06:07:48;;;;;;;;;5.50;4.25;;;;;;;;5016017;28;46334;-75
2022/10/21 06:10:15;;;;;;;;;4.50;3.50;;;;;;;;5014768;28;45526;-74
2022/10/21 06:12:40;;;;;;;;;3.00;2.50;;;;;;;;5016201;28;45424;-75
2022/10/21 06:15:06;;;;;;;;;3.50;3.50;;;;;;;;5017892;28;46772;-75
2022/10/21 06:17:31;;;;;;;;;2.50;2.50;;;;;;;;5016553;28;46400;-75
2022/10/21 06:19:56;;;;;;;;;4.75;3.75;;;;;;;;5017158;28;45345;-74
2022/10/21 06:22:21;;;;;;;;;6.75;5.00;;;;;;;;5017942;28;45305;-75
2022/10/21 06:24:48;;;;;;;;;38.67;35.00;;;;;;;;5017771;28;45463;-75
2022/10/21 06:27:13;;;;;;;;;6.50;6.50;;;;;;;;5017713;28;45512;-80
2022/10/21 06:29:38;;;;;;;;;8.00;5.25;;;;;;;;5018684;28;45548;-80
2022/10/21 06:32:04;;;;;;;;;5.25;5.25;;;;;;;;5018523;28;45379;-79
2022/10/21 06:34:29;;;;;;;;;13.25;10.50;;;;;;;;5017654;28;45376;-80
2022/10/21 06:36:54;;;;;;;;;8.00;7.25;;;;;;;;5017323;28;46504;-80
2022/10/21 06:39:19;;;;;;;;;5.50;4.25;;;;;;;;5018391;28;45508;-80
2022/10/21 06:41:45;;;;;;;;;4.25;3.00;;;;;;;;5014888;28;45608;-80
2022/10/21 06:44:10;;;;;;;;;7.50;3.75;;;;;;;;5007192;28;45460;-79
2022/10/21 06:46:35;;;;;;;;;5.50;4.00;;;;;;;;5018147;28;46297;-79
2022/10/21 06:49:00;;;;;;;;;4.00;4.00;;;;;;;;5017880;28;45369;-79
2022/10/21 06:51:28;;;;;;;;;3.00;2.75;;;;;;;;5018237;28;45274;-79
2022/10/21 06:53:54;;;;;;;;;2.50;2.50;;;;;;;;5015824;28;45411;-81
2022/10/21 06:56:20;;;;;;;;;9.25;8.00;;;;;;;;5018379;28;46508;-78
2022/10/21 06:58:47;;;;;;;;;9.75;8.50;;;;;;;;5017299;28;45377;-77
2022/10/21 07:01:15;;;;;;;;;4.00;4.00;;;;;;;;5016474;28;45325;-76
2022/10/21 07:03:40;;;;;;;;;7.25;4.00;;;;;;;;5017529;28;45343;-75
2022/10/21 07:06:05;;;;;;;;;3.50;3.50;;;;;;;;5017163;28;46457;-76
2022/10/21 07:08:31;;;;;;;;;6.75;3.75;;;;;;;;5016112;28;45221;-77
2022/10/21 07:10:56;;;;;;;;;6.50;4.00;;;;;;;;5016397;28;45407;-76
2022/10/21 07:13:22;;;;;;;;;5.50;5.25;;;;;;;;5017309;28;45383;-77
2022/10/21 07:15:56;;;;;;;;;6.50;3.00;;;;;;;;5014786;28;45532;-75
2022/10/21 07:18:21;;;;;;;;;8.25;7.00;;;;;;;;5017338;28;45304;-76
2022/10/21 07:20:46;;;;;;;;;3.25;1.25;;;;;;;;5015080;28;45466;-75
2022/10/21 07:23:11;;;;;;;;;4.50;3.50;;;;;;;;4997390;28;45470;-76
2022/10/21 07:25:36;;;;;;;;;5.00;3.50;;;;;;;;4996859;28;46202;-75
2022/10/21 07:28:02;;;;;;;;;5.75;4.00;;;;;;;;4997135;28;45466;-73
2022/10/21 07:30:27;;;;;;;;;4.00;4.00;;;;;;;;5001079;28;45156;-78
2022/10/21 07:32:52;;;;;;;;;2.50;2.50;;;;;;;;5015970;28;45634;-79
2022/10/21 07:35:17;;;;;;;;;2.50;2.25;;;;;;;;5017054;28;46414;-80
2022/10/21 07:37:43;;;;;;;;;3.25;3.25;;;;;;;;5017197;28;45292;-76
2022/10/21 07:40:10;;;;;;;;;4.00;2.75;;;;;;;;5016494;28;45272;-77
2022/10/21 07:42:35;;;;;;;;;3.25;3.25;;;;;;;;5017471;28;45347;-76
2022/10/21 07:45:02;;;;;;;;;3.25;3.25;;;;;;;;5016894;28;45521;-79
2022/10/21 07:47:27;;;;;;;;;3.75;3.75;;;;;;;;5016459;28;45319;-79
2022/10/21 07:49:52;;;;;;;;;5.00;2.00;;;;;;;;5017225;28;45450;-79
2022/10/21 07:52:17;;;;;;;;;7.75;5.00;;;;;;;;5017895;28;45370;-79
2022/10/21 07:54:42;;;;;;;;;2.25;2.25;;;;;;;;5016328;28;45756;-76
2022/10/21 07:57:08;;;;;;;;;9.75;5.50;;;;;;;;5017571;28;45270;-81
2022/10/21 07:59:33;;;;;;;;;3.00;3.00;;;;;;;;5018794;28;45389;-77
2022/10/21 08:01:58;;;;;;;;;2.75;2.00;;;;;;;;5020120;28;45408;-78
2022/10/21 08:04:28;;;;;;;;;4.00;3.00;;;;;;;;5019287;28;46467;-80
2022/10/21 08:06:54;;;;;;;;;6.00;4.00;;;;;;;;5020410;28;45297;-78
2022/10/21 08:09:19;;;;;;;;;2.00;2.00;;;;;;;;5018774;28;45380;-80
2022/10/21 08:11:44;;;;;;;;;4.50;3.00;;;;;;;;5022146;28;45352;-81
2022/10/21 08:14:10;;;;;;;;;3.00;3.00;;;;;;;;5020418;28;45400;-80
2022/10/21 08:16:35;;;;;;;;;1.00;1.00;;;;;;;;5021099;28;45386;-78
2022/10/21 08:19:01;;;;;;;;;3.50;3.00;;;;;;;;5020075;28;45350;-77
2022/10/21 08:21:27;;;;;;;;;3.00;2.00;;;;;;;;5020573;28;45429;-79
2022/10/21 08:23:52;;;;;;;;;2.00;2.00;;;;;;;;5019014;28;45537;-80
2022/10/21 08:26:17;;;;;;;;;4.00;4.00;;;;;;;;5020133;28;45284;-81
2022/10/21 08:28:43;;;;;;;;;4.75;1.25;;;;;;;;5020230;28;45336;-78
2022/10/21 08:31:15;;;;;;;;;2.00;2.00;;;;;;;;5020051;28;45717;-78
2022/10/21 08:33:41;;;;;;;;;2.50;2.00;;;;;;;;5020419;28;46766;-79
2022/10/21 08:36:07;;;;;;;;;2.50;2.00;;;;;;;;5020249;28;45410;-80
2022/10/21 08:38:33;;;;;;;;;2.00;2.00;;;;;;;;5018041;28;45456;-81
2022/10/21 08:40:58;;;;;;;;;3.00;1.50;;;;;;;;5011096;28;45392;-82
2022/10/21 08:43:25;;;;;;;;;3.50;3.50;;;;;;;;5000217;28;45558;-80
2022/10/21 08:45:56;;;;;;;;;3.50;2.00;;;;;;;;5000562;28;45412;-81
2022/10/21 08:48:30;;;;;;;;;4.00;3.00;;;;;;;;5000321;28;45288;-84
2022/10/21 08:50:56;;;;;;;;;2.75;2.75;;;;;;;;5009528;28;45364;-80
2022/10/21 08:53:22;;;;;;;;;2.00;2.00;;;;;;;;5019248;28;45330;-77
2022/10/21 08:55:47;;;;;;;;;1.75;1.75;;;;;;;;5019281;28;45582;-78
2022/10/21 08:58:18;;;;;;;;;7.00;7.00;;;;;;;;5017338;28;45492;-81
2022/10/21 09:00:49;;;;;;;;;4.50;2.00;;;;;;;;5019658;28;45362;-73
2022/10/21 09:03:22;;;;;;;;;3.75;3.75;;;;;;;;5018751;28;45564;-73
2022/10/21 09:05:56;;;;;;;;;5.75;4.25;;;;;;;;5019135;28;45393;-75
2022/10/21 09:08:40;;;;;;;;;2.00;2.00;;;;;;;;5019119;28;45675;-66
2022/10/21 09:11:08;;;;;;;;;3.25;1.00;;;;;;;;5017886;28;45458;-68
2022/10/21 09:13:56;;;;;;;;;3.25;2.25;;;;;;;;5018240;28;45455;-78
2022/10/21 09:16:42;;;;;;;;;5.50;3.00;;;;;;;;5016865;28;45588;-72
2022/10/21 09:19:10;;;;;;;;;2.00;2.00;;;;;;;;5016047;28;45250;-73
2022/10/21 09:21:44;;;;;;;;;10.25;8.50;;;;;;;;5016943;28;45341;-77
2022/10/21 09:24:12;;;;;;;;;1.75;1.75;;;;;;;;5016283;28;45693;-77
2022/10/21 09:26:41;;;;;;;;;3.75;3.00;;;;;;;;5016416;28;45585;-76
2022/10/21 09:29:27;;;;;;;;;2.25;2.25;;;;;;;;5016638;28;45356;-75
2022/10/21 09:31:54;;;;;;;;;5.50;4.00;;;;;;;;5014621;28;45414;-74
2022/10/21 09:34:38;;;;;;;;;4.50;2.50;;;;;;;;5015658;28;45468;-74
2022/10/21 09:37:07;;;;;;;;;2.00;2.00;;;;;;;;5016184;28;45462;-74
2022/10/21 09:39:40;;;;;;;;;2.00;2.00;;;;;;;;5016106;28;45529;-77
2022/10/21 09:42:09;;;;;;;;;3.50;2.00;;;;;;;;5016186;28;45508;-74
2022/10/21 09:44:34;;;;;;;;;9.75;8.25;;;;;;;;5015851;28;45894;-77
2022/10/21 09:47:00;;;;;;;;;1.75;1.75;;;;;;;;5014755;28;45362;-74
2022/10/21 09:49:30;;;;;;;;;4.00;2.00;;;;;;;;5016138;28;45390;-72
2022/10/21 09:51:59;;;;;;;;;3.00;3.00;;;;;;;;5016107;28;45342;-73
2022/10/21 09:54:25;;;;;;;;;2.00;2.00;;;;;;;;5018060;28;45609;-74
2022/10/21 09:57:00;;;;;;;;;1.50;1.50;;;;;;;;5015312;28;45249;-75
2022/10/21 09:59:25;;;;;;;;;3.50;1.75;;;;;;;;5017387;28;45494;-74
2022/10/21 10:01:50;;;;;;;;;6.00;3.75;;;;;;;;5018435;28;45316;-71
2022/10/21 10:04:16;;;;;;;;;4.50;4.00;;;;;;;;5015853;28;45443;-76
2022/10/21 10:06:44;;;;;;;;;3.00;3.00;;;;;;;;5018353;28;45218;-75
2022/10/21 10:09:14;;;;;;;;;2.00;2.00;;;;;;;;5016779;28;45441;-77
2022/10/21 10:12:02;;;;;;;;;8.50;7.25;;;;;;;;5017981;28;45433;-76
2022/10/21 10:14:29;;;;;;;;;4.75;3.00;;;;;;;;5017082;28;47176;-73
2022/10/21 10:16:55;;;;;;;;;2.00;2.00;;;;;;;;5017804;28;45393;-71
2022/10/21 10:19:27;;;;;;;;;9.33;9.33;;;;;;;;5017351;28;45500;-71
2022/10/21 10:22:07;;;;;;;;;1.75;1.75;;;;;;;;5017471;28;45411;-65
2022/10/21 10:24:33;;;;;;;;;7.00;2.00;;;;;;;;5017580;28;47650;-68
2022/10/21 10:27:03;;;;;;;;;7.00;2.00;;;;;;;;5017544;28;45370;-73
2022/10/21 10:29:28;;;;;;;;;1.00;1.00;;;;;;;;5017667;28;45328;-72
2022/10/21 10:31:55;;;;;;;;;1.25;1.25;;;;;;;;5017694;28;45427;-70
2022/10/21 10:34:22;;;;;;;;;1.00;1.00;;;;;;;;5016752;28;46495;-72
2022/10/21 10:36:48;;;;;;;;;1.00;1.00;;;;;;;;5017485;28;45401;-71
2022/10/21 10:39:27;;;;;;;;;6.00;2.00;;;;;;;;5017497;28;45266;-71
2022/10/21 10:41:53;;;;;;;;;2.50;1.75;;;;;;;;5013211;28;45377;-71
2022/10/21 10:44:24;;;;;;;;;3.00;1.00;;;;;;;;5017368;28;46521;-71
2022/10/21 10:46:53;;;;;;;;;1.75;1.75;;;;;;;;5017700;28;45420;-68
2022/10/21 10:49:23;;;;;;;;;2.00;2.00;;;;;;;;5016971;28;45419;-66
2022/10/21 10:52:03;;;;;;;;;1.00;1.00;;;;;;;;5017598;28;45752;-77
2022/10/21 10:54:28;;;;;;;;;1.75;1.00;;;;;;;;5014967;28;46302;-71
2022/10/21 10:57:14;;;;;;;;;1.00;1.00;;;;;;;;5017486;28;45341;-72
2022/10/21 10:59:42;;;;;;;;;2.50;2.00;;;;;;;;5017121;28;45317;-72
2022/10/21 11:02:11;;;;;;;;;2.75;1.00;;;;;;;;5017334;28;45423;-74
2022/10/21 11:04:51;;;;;;;;;2.00;2.00;;;;;;;;5016597;28;46572;-76
2022/10/21 11:07:34;;;;;;;;;1.00;1.00;;;;;;;;5017640;28;45458;-80
2022/10/21 11:10:05;;;;;;;;;1.00;1.00;;;;;;;;5017794;28;45619;-77
2022/10/21 11:12:30;;;;;;;;;1.00;1.00;;;;;;;;5017308;28;45587;-78
2022/10/21 11:14:57;;;;;;;;;11.67;11.00;;;;;;;;5017173;28;45828;-78
2022/10/21 11:17:36;;;;;;;;;2.75;2.25;;;;;;;;5017241;28;45434;-74
2022/10/21 11:20:27;;;;;;;;;2.00;1.00;;;;;;;;5016371;28;45339;-77
2022/10/21 11:23:11;;;;;;;;;1.00;1.00;;;;;;;;5017288;28;45552;-76
2022/10/21 11:25:42;;;;;;;;;0.75;0.75;;;;;;;;5016929;28;45698;-78
2022/10/21 11:28:21;;;;;;;;;1.00;1.00;;;;;;;;5016933;28;45416;-77
2022/10/21 11:30:52;;;;;;;;;1.00;1.00;;;;;;;;5017356;28;45328;-78
2022/10/21 11:33:24;;;;;;;;;2.50;2.00;;;;;;;;5017228;28;45331;-79
2022/10/21 11:36:07;;;;;;;;;5.00;1.50;;;;;;;;5019176;28;45457;-76
2022/10/21 11:38:43;;;;;;;;;1.75;1.75;;;;;;;;5020547;28;45333;-78
2022/10/21 11:41:29;;;;;;;;;2.00;2.00;;;;;;;;5019195;28;45352;-76
2022/10/21 11:44:15;;;;;;;;;0.00;0.00;;;;;;;;5020869;28;45529;-76
2022/10/21 11:46:59;;;;;;;;;5.75;1.00;;;;;;;;5019460;28;46719;-80
2022/10/21 11:49:24;;;;;;;;;0.25;0.25;;;;;;;;5019070;28;45389;-77
2022/10/21 11:52:03;;;;;;;;;2.25;0.75;;;;;;;;5020459;28;45140;-77
2022/10/21 11:54:44;;;;;;;;;2.25;2.25;;;;;;;;5020013;28;45425;-78
2022/10/21 11:57:26;;;;;;;;;1.50;1.50;;;;;;;;5019901;28;45853;-79
2022/10/21 11:59:54;;;;;;;;;3.00;3.00;;;;;;;;5020066;28;45501;-78
2022/10/21 12:02:23;;;;;;;;;2.00;2.00;;;;;;;;5020549;28;45359;-77
2022/10/21 12:05:24;;;;;;;;;2.00;1.75;;;;;;;;5016816;28;45479;-77
2022/10/21 12:07:58;;;;;;;;;2.25;2.25;;;;;;;;5016657;28;46269;-75
2022/10/21 12:10:24;;;;;;;;;1.00;1.00;;;;;;;;5016013;28;45313;-79
2022/10/21 12:12:50;;;;;;;;;2.50;1.75;;;;;;;;5017171;28;45437;-78
2022/10/21 12:15:18;;;;;;;;;2.75;2.00;;;;;;;;5017465;28;45722;-76
2022/10/21 12:17:44;;;;;;;;;1.75;1.50;;;;;;;;5014193;28;45522;-77
2022/10/21 12:20:15;;;;;;;;;2.00;2.00;;;;;;;;5016593;28;45292;-76
2022/10/21 12:22:41;;;;;;;;;2.00;1.00;;;;;;;;5015900;28;45505;-77
2022/10/21 12:25:16;;;;;;;;;2.00;0.25;;;;;;;;5015208;28;45456;-78
2022/10/21 12:27:50;;;;;;;;;1.25;1.00;;;;;;;;5017316;28;45586;-76
2022/10/21 12:30:18;;;;;;;;;1.00;0.00;;;;;;;;5017361;28;45378;-77
2022/10/21 12:32:43;;;;;;;;;1.25;1.25;;;;;;;;5016928;28;45452;-77
2022/10/21 12:35:19;;;;;;;;;2.25;0.75;;;;;;;;5017544;28;45472;-74
2022/10/21 12:37:45;;;;;;;;;0.00;0.00;;;;;;;;5017369;28;45605;-74
2022/10/21 12:40:10;;;;;;;;;1.50;1.50;;;;;;;;5016987;28;45302;-76
2022/10/21 12:42:36;;;;;;;;;1.00;1.00;;;;;;;;5002796;28;45504;-72
2022/10/21 12:45:01;;;;;;;;;2.00;1.00;;;;;;;;4999271;28;45423;-80
2022/10/21 12:47:31;;;;;;;;;1.00;1.00;;;;;;;;4999388;28;46627;-71
2022/10/21 12:50:02;;;;;;;;;3.00;2.00;;;;;;;;4999456;28;45409;-75
2022/10/21 12:52:28;;;;;;;;;0.00;0.00;;;;;;;;4999085;28;45257;-75
2022/10/21 12:54:53;;;;;;;;;1.00;1.00;;;;;;;;4999770;28;45415;-76
2022/10/21 12:57:38;;;;;;;;;0.25;0.25;;;;;;;;4999214;28;46628;-76
2022/10/21 13:00:14;;;;;;;;;3.50;1.00;;;;;;;;4998809;28;45362;-76
2022/10/21 13:02:58;;;;;;;;;1.00;1.00;;;;;;;;4999272;28;45821;-77
2022/10/21 13:05:35;;;;;;;;;1.00;1.00;;;;;;;;4999330;28;45453;-76
2022/10/21 13:08:19;;;;;;;;;3.75;2.00;;;;;;;;4999027;28;45557;-74
2022/10/21 13:11:02;;;;;;;;;1.75;1.75;;;;;;;;4999237;28;45353;-76
2022/10/21 13:13:34;;;;;;;;;10.00;10.00;;;;;;;;4999002;28;45539;-72
2022/10/21 13:16:19;;;;;;;;;0.25;0.25;;;;;;;;4999024;28;45342;-72
2022/10/21 13:18:54;;;;;;;;;1.00;1.00;;;;;;;;4998572;28;45322;-74
2022/10/21 13:21:28;;;;;;;;;2.75;1.00;;;;;;;;5008397;28;45417;-71
2022/10/21 13:23:53;;;;;;;;;0.00;0.00;;;;;;;;5010810;28;45549;-71
2022/10/21 13:26:22;;;;;;;;;1.00;1.00;;;;;;;;5014279;28;45496;-72
2022/10/21 13:28:55;;;;;;;;;2.00;0.00;;;;;;;;5015258;28;46416;-71
2022/10/21 13:31:21;;;;;;;;;8.25;8.25;;;;;;;;5017831;28;45508;-72
2022/10/21 13:33:51;;;;;;;;;0.00;0.00;;;;;;;;5017511;28;45332;-71
2022/10/21 13:36:23;;;;;;;;;0.00;0.00;;;;;;;;5012084;28;45448;-71
2022/10/21 13:38:51;;;;;;;;;0.00;0.00;;;;;;;;5017502;28;45515;-72
2022/10/21 13:41:16;;;;;;;;;1.50;0.00;;;;;;;;5017104;28;45542;-71
2022/10/21 13:43:46;;;;;;;;;1.00;1.00;;;;;;;;5016898;28;45563;-72
2022/10/21 13:46:21;;;;;;;;;0.75;0.00;;;;;;;;5018096;28;45514;-70
2022/10/21 13:48:47;;;;;;;;;0.00;0.00;;;;;;;;5017674;28;46445;-70
2022/10/21 13:51:22;;;;;;;;;0.25;0.25;;;;;;;;5017509;28;45453;-72
2022/10/21 13:53:48;;;;;;;;;1.25;1.00;;;;;;;;5017860;28;45380;-72
2022/10/21 13:56:18;;;;;;;;;2.00;0.00;;;;;;;;5017566;28;45534;-71
2022/10/21 13:58:43;;;;;;;;;0.50;0.00;;;;;;;;5016149;28;46537;-73
2022/10/21 14:01:13;;;;;;;;;1.50;1.50;;;;;;;;5016951;28;45392;-73
2022/10/21 14:03:40;;;;;;;;;0.00;0.00;;;;;;;;5015521;28;45316;-73
2022/10/21 14:06:08;;;;;;;;;3.00;0.00;;;;;;;;5015872;28;45630;-73
2022/10/21 14:08:37;;;;;;;;;2.00;0.00;;;;;;;;5017403;28;47098;-72
2022/10/21 14:11:29;;;;;;;;;1.00;0.50;;;;;;;;5012375;28;45547;-73
2022/10/21 14:13:57;;;;;;;;;0.25;0.00;;;;;;;;5012989;28;45914;-73
2022/10/21 14:16:29;;;;;;;;;0.00;0.00;;;;;;;;5012354;28;45529;-73
2022/10/21 14:18:55;;;;;;;;;1.25;0.75;;;;;;;;5005097;28;45633;-73
2022/10/21 14:21:21;;;;;;;;;0.00;0.00;;;;;;;;4996636;28;45346;-73
2022/10/21 14:23:47;;;;;;;;;1.00;1.00;;;;;;;;4994821;28;45596;-74
2022/10/21 14:26:12;;;;;;;;;0.00;0.00;;;;;;;;4995056;28;45405;-72
2022/10/21 14:28:38;;;;;;;;;1.00;1.00;;;;;;;;4994761;28;45694;-72
2022/10/21 14:31:10;;;;;;;;;4.00;0.75;;;;;;;;5001356;28;46289;-72
2022/10/21 14:33:38;;;;;;;;;3.50;1.00;;;;;;;;5005462;28;45390;-72
2022/10/21 14:36:03;;;;;;;;;3.00;2.00;;;;;;;;4998204;28;45292;-71
2022/10/21 14:38:34;;;;;;;;;2.00;2.00;;;;;;;;5012159;28;45864;-72
2022/10/21 14:41:04;;;;;;;;;1.00;1.00;;;;;;;;5015231;28;45415;-72
2022/10/21 14:43:49;;;;;;;;;1.25;1.25;;;;;;;;5014921;28;45411;-72
2022/10/21 14:46:14;;;;;;;;;4.25;4.25;;;;;;;;5015539;28;45463;-72
2022/10/21 14:48:44;;;;;;;;;2.50;1.75;;;;;;;;5014922;28;46590;-74
2022/10/21 14:51:11;;;;;;;;;1.00;1.00;;;;;;;;5016496;28;45467;-74